sensor_id;sensor_type;location;lat;lon;timestamp;P1;durP1;ratioP1;P2;durP2;ratioP2
30743;SDS011;17486;46.738;7.622;2023-12-29T00:01:31;11.48;;;8.73;;
30743;SDS011;17486;46.738;7.622;2023-12-29T00:03:57;12.75;;;8.18;;
30743;SDS011;17486;46.738;7.622;2023-12-29T00:06:22;10.68;;;8.00;;
30743;SDS011;17486;46.738;7.622;2023-12-29T00:08:48;24.90;;;16.85;;
30743;SDS011;17486;46.738;7.622;2023-12-29T00:11:17;137.20;;;85.22;;
30743;SDS011;17486;46.738;7.622;2023-12-29T00:13:43;104.60;;;63.95;;
30743;SDS011;17486;46.738;7.622;2023-12-29T00:16:08;62.10;;;39.75;;
30743;SDS011;17486;46.738;7.622;2023-12-29T00:18:34;30.77;;;20.92;;
30743;SDS011;17486;46.738;7.622;2023-12-29T00:21:02;20.00;;;14.70;;
30743;SDS011;17486;46.738;7.622;2023-12-29T00:23:27;14.45;;;11.50;;
30743;SDS011;17486;46.738;7.622;2023-12-29T00:25:53;12.18;;;9.05;;
30743;SDS011;17486;46.738;7.622;2023-12-29T00:28:18;11.05;;;9.43;;
30743;SDS011;17486;46.738;7.622;2023-12-29T00:30:43;11.32;;;9.07;;
30743;SDS011;17486;46.738;7.622;2023-12-29T00:33:09;11.45;;;9.52;;
30743;SDS011;17486;46.738;7.622;2023-12-29T00:35:36;11.88;;;8.68;;
30743;SDS011;17486;46.738;7.622;2023-12-29T00:38:02;13.27;;;8.68;;
30743;SDS011;17486;46.738;7.622;2023-12-29T00:40:28;11.55;;;8.55;;
30743;SDS011;17486;46.738;7.622;2023-12-29T00:42:53;11.07;;;8.45;;
30743;SDS011;17486;46.738;7.622;2023-12-29T00:45:19;13.85;;;9.75;;
30743;SDS011;17486;46.738;7.622;2023-12-29T00:47:46;12.43;;;8.95;;
30743;SDS011;17486;46.738;7.622;2023-12-29T00:50:13;12.75;;;8.80;;
30743;SDS011;17486;46.738;7.622;2023-12-29T00:52:39;10.90;;;8.38;;
30743;SDS011;17486;46.738;7.622;2023-12-29T00:55:04;13.27;;;9.20;;
30743;SDS011;17486;46.738;7.622;2023-12-29T00:57:30;13.95;;;8.68;;
30743;SDS011;17486;46.738;7.622;2023-12-29T00:59:55;13.13;;;8.77;;
30743;SDS011;17486;46.738;7.622;2023-12-29T01:02:21;10.55;;;8.27;;
30743;SDS011;17486;46.738;7.622;2023-12-29T01:04:46;14.00;;;9.18;;
30743;SDS011;17486;46.738;7.622;2023-12-29T01:07:11;10.32;;;7.80;;
30743;SDS011;17486;46.738;7.622;2023-12-29T01:09:37;13.70;;;8.77;;
30743;SDS011;17486;46.738;7.622;2023-12-29T01:12:05;33.83;;;25.40;;
30743;SDS011;17486;46.738;7.622;2023-12-29T01:14:30;103.70;;;71.13;;
30743;SDS011;17486;46.738;7.622;2023-12-29T01:16:55;260.92;;;165.00;;
30743;SDS011;17486;46.738;7.622;2023-12-29T01:19:21;211.82;;;128.43;;
30743;SDS011;17486;46.738;7.622;2023-12-29T01:21:46;122.38;;;72.15;;
30743;SDS011;17486;46.738;7.622;2023-12-29T01:24:11;55.92;;;34.53;;
30743;SDS011;17486;46.738;7.622;2023-12-29T01:26:37;21.27;;;14.38;;
30743;SDS011;17486;46.738;7.622;2023-12-29T01:29:03;12.82;;;9.50;;
30743;SDS011;17486;46.738;7.622;2023-12-29T01:31:30;11.18;;;7.75;;
30743;SDS011;17486;46.738;7.622;2023-12-29T01:33:56;11.20;;;8.18;;
30743;SDS011;17486;46.738;7.622;2023-12-29T01:36:21;8.82;;;7.53;;
30743;SDS011;17486;46.738;7.622;2023-12-29T01:38:47;11.18;;;7.50;;
30743;SDS011;17486;46.738;7.622;2023-12-29T01:41:12;9.13;;;7.40;;
30743;SDS011;17486;46.738;7.622;2023-12-29T01:44:23;9.60;;;7.82;;
30743;SDS011;17486;46.738;7.622;2023-12-29T01:46:40;12.65;;;8.23;;
30743;SDS011;17486;46.738;7.622;2023-12-29T01:49:06;10.60;;;7.63;;
30743;SDS011;17486;46.738;7.622;2023-12-29T01:51:31;10.88;;;7.55;;
30743;SDS011;17486;46.738;7.622;2023-12-29T01:53:57;9.77;;;7.68;;
30743;SDS011;17486;46.738;7.622;2023-12-29T01:56:23;10.75;;;8.40;;
30743;SDS011;17486;46.738;7.622;2023-12-29T01:58:50;10.48;;;8.15;;
30743;SDS011;17486;46.738;7.622;2023-12-29T02:01:17;9.93;;;8.40;;
30743;SDS011;17486;46.738;7.622;2023-12-29T02:03:43;11.27;;;8.32;;
30743;SDS011;17486;46.738;7.622;2023-12-29T02:06:10;11.15;;;8.35;;
30743;SDS011;17486;46.738;7.622;2023-12-29T02:08:40;12.25;;;8.60;;
30743;SDS011;17486;46.738;7.622;2023-12-29T02:11:05;10.45;;;8.82;;
30743;SDS011;17486;46.738;7.622;2023-12-29T02:13:31;11.98;;;8.45;;
30743;SDS011;17486;46.738;7.622;2023-12-29T02:15:58;12.35;;;8.23;;
30743;SDS011;17486;46.738;7.622;2023-12-29T02:18:30;10.70;;;8.50;;
30743;SDS011;17486;46.738;7.622;2023-12-29T02:20:58;11.10;;;8.98;;
30743;SDS011;17486;46.738;7.622;2023-12-29T02:23:23;9.27;;;8.13;;
30743;SDS011;17486;46.738;7.622;2023-12-29T02:25:48;11.25;;;8.80;;
30743;SDS011;17486;46.738;7.622;2023-12-29T02:28:20;11.25;;;8.48;;
30743;SDS011;17486;46.738;7.622;2023-12-29T02:30:55;11.63;;;8.50;;
30743;SDS011;17486;46.738;7.622;2023-12-29T02:33:33;9.33;;;7.67;;
30743;SDS011;17486;46.738;7.622;2023-12-29T02:36:03;11.55;;;8.52;;
30743;SDS011;17486;46.738;7.622;2023-12-29T02:38:30;11.63;;;7.75;;
30743;SDS011;17486;46.738;7.622;2023-12-29T02:40:56;10.05;;;7.90;;
30743;SDS011;17486;46.738;7.622;2023-12-29T02:43:21;11.50;;;8.00;;
30743;SDS011;17486;46.738;7.622;2023-12-29T02:45:47;11.57;;;8.77;;
30743;SDS011;17486;46.738;7.622;2023-12-29T02:48:12;11.80;;;8.52;;
30743;SDS011;17486;46.738;7.622;2023-12-29T02:50:38;9.18;;;7.97;;
30743;SDS011;17486;46.738;7.622;2023-12-29T02:53:03;8.93;;;7.78;;
30743;SDS011;17486;46.738;7.622;2023-12-29T02:55:29;10.50;;;7.82;;
30743;SDS011;17486;46.738;7.622;2023-12-29T02:57:54;10.10;;;7.75;;
30743;SDS011;17486;46.738;7.622;2023-12-29T03:00:20;11.35;;;8.60;;
30743;SDS011;17486;46.738;7.622;2023-12-29T03:02:45;10.63;;;8.57;;
30743;SDS011;17486;46.738;7.622;2023-12-29T03:05:10;10.52;;;8.30;;
30743;SDS011;17486;46.738;7.622;2023-12-29T03:07:36;11.20;;;8.32;;
30743;SDS011;17486;46.738;7.622;2023-12-29T03:10:02;10.57;;;8.18;;
30743;SDS011;17486;46.738;7.622;2023-12-29T03:12:27;10.60;;;8.02;;
30743;SDS011;17486;46.738;7.622;2023-12-29T03:14:54;11.25;;;8.02;;
30743;SDS011;17486;46.738;7.622;2023-12-29T03:17:19;9.93;;;8.05;;
30743;SDS011;17486;46.738;7.622;2023-12-29T03:19:44;9.98;;;7.50;;
30743;SDS011;17486;46.738;7.622;2023-12-29T03:22:10;9.00;;;7.30;;
30743;SDS011;17486;46.738;7.622;2023-12-29T03:24:36;9.27;;;7.45;;
30743;SDS011;17486;46.738;7.622;2023-12-29T03:27:02;9.55;;;7.60;;
30743;SDS011;17486;46.738;7.622;2023-12-29T03:29:27;9.93;;;7.90;;
30743;SDS011;17486;46.738;7.622;2023-12-29T03:31:52;10.18;;;7.75;;
30743;SDS011;17486;46.738;7.622;2023-12-29T03:34:18;10.05;;;7.45;;
30743;SDS011;17486;46.738;7.622;2023-12-29T03:36:44;10.18;;;7.47;;
30743;SDS011;17486;46.738;7.622;2023-12-29T03:39:10;10.52;;;7.78;;
30743;SDS011;17486;46.738;7.622;2023-12-29T03:41:35;9.70;;;7.97;;
30743;SDS011;17486;46.738;7.622;2023-12-29T03:44:01;9.75;;;7.43;;
30743;SDS011;17486;46.738;7.622;2023-12-29T03:46:26;12.02;;;7.68;;
30743;SDS011;17486;46.738;7.622;2023-12-29T03:48:51;9.52;;;7.97;;
30743;SDS011;17486;46.738;7.622;2023-12-29T03:51:18;12.45;;;8.50;;
30743;SDS011;17486;46.738;7.622;2023-12-29T03:53:44;9.38;;;7.95;;
30743;SDS011;17486;46.738;7.622;2023-12-29T03:56:12;9.75;;;7.53;;
30743;SDS011;17486;46.738;7.622;2023-12-29T03:58:39;9.32;;;7.28;;
30743;SDS011;17486;46.738;7.622;2023-12-29T04:01:09;9.35;;;7.75;;
30743;SDS011;17486;46.738;7.622;2023-12-29T04:03:36;9.63;;;7.40;;
30743;SDS011;17486;46.738;7.622;2023-12-29T04:06:01;8.93;;;7.53;;
30743;SDS011;17486;46.738;7.622;2023-12-29T04:08:27;9.73;;;7.82;;
30743;SDS011;17486;46.738;7.622;2023-12-29T04:10:52;10.60;;;7.35;;
30743;SDS011;17486;46.738;7.622;2023-12-29T04:13:18;10.52;;;8.05;;
30743;SDS011;17486;46.738;7.622;2023-12-29T04:15:43;9.65;;;7.88;;
30743;SDS011;17486;46.738;7.622;2023-12-29T04:18:09;10.02;;;7.75;;
30743;SDS011;17486;46.738;7.622;2023-12-29T04:20:34;11.73;;;7.93;;
30743;SDS011;17486;46.738;7.622;2023-12-29T04:23:00;10.27;;;8.13;;
30743;SDS011;17486;46.738;7.622;2023-12-29T04:25:25;11.65;;;7.82;;
30743;SDS011;17486;46.738;7.622;2023-12-29T04:27:50;10.05;;;7.72;;
30743;SDS011;17486;46.738;7.622;2023-12-29T04:30:16;11.88;;;7.65;;
30743;SDS011;17486;46.738;7.622;2023-12-29T04:32:41;10.63;;;7.45;;
30743;SDS011;17486;46.738;7.622;2023-12-29T04:35:07;10.75;;;7.25;;
30743;SDS011;17486;46.738;7.622;2023-12-29T04:37:32;10.65;;;7.53;;
30743;SDS011;17486;46.738;7.622;2023-12-29T04:39:58;9.88;;;7.20;;
30743;SDS011;17486;46.738;7.622;2023-12-29T04:42:23;9.60;;;6.70;;
30743;SDS011;17486;46.738;7.622;2023-12-29T04:44:49;10.85;;;7.90;;
30743;SDS011;17486;46.738;7.622;2023-12-29T04:47:14;10.55;;;7.25;;
30743;SDS011;17486;46.738;7.622;2023-12-29T04:49:39;9.48;;;7.22;;
30743;SDS011;17486;46.738;7.622;2023-12-29T04:52:05;9.13;;;6.60;;
30743;SDS011;17486;46.738;7.622;2023-12-29T04:54:31;10.23;;;7.05;;
30743;SDS011;17486;46.738;7.622;2023-12-29T04:56:56;9.80;;;6.50;;
30743;SDS011;17486;46.738;7.622;2023-12-29T04:59:21;10.50;;;7.20;;
30743;SDS011;17486;46.738;7.622;2023-12-29T05:01:47;9.77;;;6.72;;
30743;SDS011;17486;46.738;7.622;2023-12-29T05:04:12;11.95;;;7.57;;
30743;SDS011;17486;46.738;7.622;2023-12-29T05:06:39;12.18;;;7.22;;
30743;SDS011;17486;46.738;7.622;2023-12-29T05:09:05;9.15;;;7.10;;
30743;SDS011;17486;46.738;7.622;2023-12-29T05:11:30;9.93;;;6.72;;
30743;SDS011;17486;46.738;7.622;2023-12-29T05:13:56;8.20;;;6.70;;
30743;SDS011;17486;46.738;7.622;2023-12-29T05:16:21;10.40;;;6.80;;
30743;SDS011;17486;46.738;7.622;2023-12-29T05:18:46;8.65;;;6.57;;
30743;SDS011;17486;46.738;7.622;2023-12-29T05:21:15;9.65;;;6.35;;
30743;SDS011;17486;46.738;7.622;2023-12-29T05:23:44;7.85;;;6.25;;
30743;SDS011;17486;46.738;7.622;2023-12-29T05:26:13;9.45;;;6.78;;
30743;SDS011;17486;46.738;7.622;2023-12-29T05:28:39;10.38;;;7.28;;
30743;SDS011;17486;46.738;7.622;2023-12-29T05:31:04;9.00;;;6.68;;
30743;SDS011;17486;46.738;7.622;2023-12-29T05:33:30;8.52;;;6.53;;
30743;SDS011;17486;46.738;7.622;2023-12-29T05:35:56;9.30;;;6.68;;
30743;SDS011;17486;46.738;7.622;2023-12-29T05:38:22;9.73;;;7.25;;
30743;SDS011;17486;46.738;7.622;2023-12-29T05:40:47;9.20;;;7.03;;
30743;SDS011;17486;46.738;7.622;2023-12-29T05:43:12;9.70;;;6.57;;
30743;SDS011;17486;46.738;7.622;2023-12-29T05:45:39;12.43;;;7.32;;
30743;SDS011;17486;46.738;7.622;2023-12-29T05:48:05;9.63;;;7.03;;
30743;SDS011;17486;46.738;7.622;2023-12-29T05:50:31;9.43;;;6.72;;
30743;SDS011;17486;46.738;7.622;2023-12-29T05:52:56;9.75;;;7.30;;
30743;SDS011;17486;46.738;7.622;2023-12-29T05:55:22;11.75;;;7.50;;
30743;SDS011;17486;46.738;7.622;2023-12-29T05:57:47;11.77;;;7.30;;
30743;SDS011;17486;46.738;7.622;2023-12-29T06:00:12;9.02;;;7.68;;
30743;SDS011;17486;46.738;7.622;2023-12-29T06:02:42;8.85;;;6.43;;
30743;SDS011;17486;46.738;7.622;2023-12-29T06:05:11;8.73;;;6.63;;
30743;SDS011;17486;46.738;7.622;2023-12-29T06:07:37;8.85;;;6.30;;
30743;SDS011;17486;46.738;7.622;2023-12-29T06:10:02;9.63;;;6.60;;
30743;SDS011;17486;46.738;7.622;2023-12-29T06:12:28;9.90;;;6.57;;
30743;SDS011;17486;46.738;7.622;2023-12-29T06:14:54;9.77;;;7.38;;
30743;SDS011;17486;46.738;7.622;2023-12-29T06:17:19;9.43;;;6.65;;
30743;SDS011;17486;46.738;7.622;2023-12-29T06:19:44;9.93;;;7.40;;
30743;SDS011;17486;46.738;7.622;2023-12-29T06:22:10;8.90;;;6.65;;
30743;SDS011;17486;46.738;7.622;2023-12-29T06:24:42;7.85;;;6.20;;
30743;SDS011;17486;46.738;7.622;2023-12-29T06:27:08;9.90;;;6.82;;
30743;SDS011;17486;46.738;7.622;2023-12-29T06:29:34;9.45;;;7.00;;
30743;SDS011;17486;46.738;7.622;2023-12-29T06:32:00;9.02;;;6.60;;
30743;SDS011;17486;46.738;7.622;2023-12-29T06:34:25;8.82;;;7.30;;
30743;SDS011;17486;46.738;7.622;2023-12-29T06:36:51;8.02;;;6.63;;
30743;SDS011;17486;46.738;7.622;2023-12-29T06:39:16;10.57;;;7.95;;
30743;SDS011;17486;46.738;7.622;2023-12-29T06:41:41;9.38;;;6.72;;
30743;SDS011;17486;46.738;7.622;2023-12-29T06:44:07;9.20;;;7.47;;
30743;SDS011;17486;46.738;7.622;2023-12-29T06:46:33;8.23;;;6.60;;
30743;SDS011;17486;46.738;7.622;2023-12-29T06:48:58;8.90;;;6.65;;
30743;SDS011;17486;46.738;7.622;2023-12-29T06:51:23;10.68;;;7.15;;
30743;SDS011;17486;46.738;7.622;2023-12-29T06:53:49;8.77;;;6.45;;
30743;SDS011;17486;46.738;7.622;2023-12-29T06:56:15;11.75;;;7.10;;
30743;SDS011;17486;46.738;7.622;2023-12-29T06:58:41;8.65;;;6.40;;
30743;SDS011;17486;46.738;7.622;2023-12-29T07:01:06;9.32;;;6.60;;
30743;SDS011;17486;46.738;7.622;2023-12-29T07:03:32;8.77;;;6.85;;
30743;SDS011;17486;46.738;7.622;2023-12-29T07:05:59;10.52;;;7.07;;
30743;SDS011;17486;46.738;7.622;2023-12-29T07:08:26;10.18;;;7.07;;
30743;SDS011;17486;46.738;7.622;2023-12-29T07:10:51;9.98;;;7.50;;
30743;SDS011;17486;46.738;7.622;2023-12-29T07:13:17;11.27;;;7.57;;
30743;SDS011;17486;46.738;7.622;2023-12-29T07:15:42;9.43;;;6.75;;
30743;SDS011;17486;46.738;7.622;2023-12-29T07:18:08;11.02;;;6.80;;
30743;SDS011;17486;46.738;7.622;2023-12-29T07:20:33;10.80;;;6.80;;
30743;SDS011;17486;46.738;7.622;2023-12-29T07:22:59;10.02;;;7.13;;
30743;SDS011;17486;46.738;7.622;2023-12-29T07:25:26;10.52;;;6.93;;
30743;SDS011;17486;46.738;7.622;2023-12-29T07:27:51;11.10;;;6.38;;
30743;SDS011;17486;46.738;7.622;2023-12-29T07:30:17;8.27;;;6.10;;
30743;SDS011;17486;46.738;7.622;2023-12-29T07:32:43;8.68;;;6.28;;
30743;SDS011;17486;46.738;7.622;2023-12-29T07:35:08;7.57;;;5.82;;
30743;SDS011;17486;46.738;7.622;2023-12-29T07:37:34;6.78;;;5.70;;
30743;SDS011;17486;46.738;7.622;2023-12-29T07:39:59;9.65;;;6.10;;
30743;SDS011;17486;46.738;7.622;2023-12-29T07:42:25;7.82;;;5.47;;
30743;SDS011;17486;46.738;7.622;2023-12-29T07:44:50;7.35;;;5.80;;
30743;SDS011;17486;46.738;7.622;2023-12-29T07:47:16;10.45;;;5.80;;
30743;SDS011;17486;46.738;7.622;2023-12-29T07:49:42;7.85;;;5.55;;
30743;SDS011;17486;46.738;7.622;2023-12-29T07:52:07;8.45;;;5.57;;
30743;SDS011;17486;46.738;7.622;2023-12-29T07:54:33;8.73;;;5.20;;
30743;SDS011;17486;46.738;7.622;2023-12-29T07:56:58;8.15;;;5.50;;
30743;SDS011;17486;46.738;7.622;2023-12-29T07:59:24;6.68;;;5.07;;
30743;SDS011;17486;46.738;7.622;2023-12-29T08:01:50;9.60;;;5.68;;
30743;SDS011;17486;46.738;7.622;2023-12-29T08:04:15;6.00;;;4.88;;
30743;SDS011;17486;46.738;7.622;2023-12-29T08:06:41;7.22;;;5.35;;
30743;SDS011;17486;46.738;7.622;2023-12-29T08:09:06;7.13;;;5.35;;
30743;SDS011;17486;46.738;7.622;2023-12-29T08:11:32;7.97;;;5.15;;
30743;SDS011;17486;46.738;7.622;2023-12-29T08:13:58;7.18;;;5.60;;
30743;SDS011;17486;46.738;7.622;2023-12-29T08:16:23;9.35;;;6.00;;
30743;SDS011;17486;46.738;7.622;2023-12-29T08:18:49;7.53;;;5.30;;
30743;SDS011;17486;46.738;7.622;2023-12-29T08:21:21;6.13;;;4.90;;
30743;SDS011;17486;46.738;7.622;2023-12-29T08:23:47;7.50;;;6.00;;
30743;SDS011;17486;46.738;7.622;2023-12-29T08:26:13;9.30;;;6.15;;
30743;SDS011;17486;46.738;7.622;2023-12-29T08:28:38;8.40;;;5.78;;
30743;SDS011;17486;46.738;7.622;2023-12-29T08:31:04;10.00;;;6.28;;
30743;SDS011;17486;46.738;7.622;2023-12-29T08:33:30;8.88;;;5.65;;
30743;SDS011;17486;46.738;7.622;2023-12-29T08:35:55;8.43;;;6.05;;
30743;SDS011;17486;46.738;7.622;2023-12-29T08:38:25;8.30;;;5.70;;
30743;SDS011;17486;46.738;7.622;2023-12-29T08:40:54;7.00;;;5.10;;
30743;SDS011;17486;46.738;7.622;2023-12-29T08:43:19;6.68;;;5.40;;
30743;SDS011;17486;46.738;7.622;2023-12-29T08:45:47;6.53;;;4.90;;
30743;SDS011;17486;46.738;7.622;2023-12-29T08:48:12;6.35;;;5.10;;
30743;SDS011;17486;46.738;7.622;2023-12-29T08:50:38;8.23;;;5.85;;
30743;SDS011;17486;46.738;7.622;2023-12-29T08:53:03;10.13;;;6.07;;
30743;SDS011;17486;46.738;7.622;2023-12-29T08:55:29;6.25;;;4.93;;
30743;SDS011;17486;46.738;7.622;2023-12-29T08:57:56;5.80;;;5.20;;
30743;SDS011;17486;46.738;7.622;2023-12-29T09:00:21;7.25;;;5.47;;
30743;SDS011;17486;46.738;7.622;2023-12-29T09:02:47;7.03;;;5.40;;
30743;SDS011;17486;46.738;7.622;2023-12-29T09:05:12;7.15;;;5.15;;
30743;SDS011;17486;46.738;7.622;2023-12-29T09:07:38;5.72;;;4.93;;
30743;SDS011;17486;46.738;7.622;2023-12-29T09:10:03;6.88;;;4.60;;
30743;SDS011;17486;46.738;7.622;2023-12-29T09:12:33;5.95;;;4.82;;
30743;SDS011;17486;46.738;7.622;2023-12-29T09:14:59;5.93;;;4.40;;
30743;SDS011;17486;46.738;7.622;2023-12-29T09:17:24;5.45;;;4.38;;
30743;SDS011;17486;46.738;7.622;2023-12-29T09:19:49;6.63;;;4.50;;
30743;SDS011;17486;46.738;7.622;2023-12-29T09:22:15;6.95;;;4.68;;
30743;SDS011;17486;46.738;7.622;2023-12-29T09:24:41;6.05;;;4.38;;
30743;SDS011;17486;46.738;7.622;2023-12-29T09:27:06;6.53;;;4.13;;
30743;SDS011;17486;46.738;7.622;2023-12-29T09:29:32;5.82;;;4.10;;
30743;SDS011;17486;46.738;7.622;2023-12-29T09:31:57;5.40;;;4.20;;
30743;SDS011;17486;46.738;7.622;2023-12-29T09:34:23;5.95;;;3.78;;
30743;SDS011;17486;46.738;7.622;2023-12-29T09:36:48;5.43;;;3.97;;
30743;SDS011;17486;46.738;7.622;2023-12-29T09:39:14;6.25;;;4.30;;
30743;SDS011;17486;46.738;7.622;2023-12-29T09:41:40;3.55;;;3.20;;
30743;SDS011;17486;46.738;7.622;2023-12-29T09:44:12;4.00;;;3.53;;
30743;SDS011;17486;46.738;7.622;2023-12-29T09:46:39;4.88;;;3.55;;
30743;SDS011;17486;46.738;7.622;2023-12-29T09:49:06;5.60;;;3.80;;
30743;SDS011;17486;46.738;7.622;2023-12-29T09:51:34;5.13;;;4.10;;
30743;SDS011;17486;46.738;7.622;2023-12-29T09:54:01;6.32;;;4.68;;
30743;SDS011;17486;46.738;7.622;2023-12-29T09:56:27;5.15;;;4.28;;
30743;SDS011;17486;46.738;7.622;2023-12-29T09:58:53;130.95;;;96.03;;
30743;SDS011;17486;46.738;7.622;2023-12-29T10:01:19;126.45;;;94.40;;
30743;SDS011;17486;46.738;7.622;2023-12-29T10:03:47;128.63;;;93.93;;
30743;SDS011;17486;46.738;7.622;2023-12-29T10:06:13;70.53;;;50.25;;
30743;SDS011;17486;46.738;7.622;2023-12-29T10:08:45;33.43;;;21.47;;
30743;SDS011;17486;46.738;7.622;2023-12-29T10:11:11;13.25;;;9.52;;
30743;SDS011;17486;46.738;7.622;2023-12-29T10:13:38;7.63;;;5.55;;
30743;SDS011;17486;46.738;7.622;2023-12-29T10:18:32;77.80;;;54.20;;
30743;SDS011;17486;46.738;7.622;2023-12-29T10:21:23;132.85;;;87.30;;
30743;SDS011;17486;46.738;7.622;2023-12-29T10:23:58;71.55;;;41.92;;
30743;SDS011;17486;46.738;7.622;2023-12-29T10:26:30;38.47;;;20.33;;
30743;SDS011;17486;46.738;7.622;2023-12-29T10:28:57;16.50;;;9.50;;
30743;SDS011;17486;46.738;7.622;2023-12-29T10:31:24;9.00;;;6.03;;
30743;SDS011;17486;46.738;7.622;2023-12-29T10:33:51;6.55;;;4.13;;
30743;SDS011;17486;46.738;7.622;2023-12-29T10:36:17;6.13;;;4.05;;
30743;SDS011;17486;46.738;7.622;2023-12-29T10:38:42;5.20;;;4.03;;
30743;SDS011;17486;46.738;7.622;2023-12-29T10:41:17;5.75;;;4.88;;
30743;SDS011;17486;46.738;7.622;2023-12-29T10:43:45;6.97;;;5.05;;
30743;SDS011;17486;46.738;7.622;2023-12-29T10:46:19;68.53;;;46.70;;
30743;SDS011;17486;46.738;7.622;2023-12-29T10:48:45;173.23;;;97.95;;
30743;SDS011;17486;46.738;7.622;2023-12-29T10:51:11;77.38;;;43.60;;
30743;SDS011;17486;46.738;7.622;2023-12-29T10:53:36;145.20;;;82.18;;
30743;SDS011;17486;46.738;7.622;2023-12-29T10:56:02;43.90;;;25.98;;
30743;SDS011;17486;46.738;7.622;2023-12-29T10:58:28;18.23;;;10.98;;
30743;SDS011;17486;46.738;7.622;2023-12-29T11:00:58;8.52;;;6.15;;
30743;SDS011;17486;46.738;7.622;2023-12-29T11:03:27;5.75;;;4.72;;
30743;SDS011;17486;46.738;7.622;2023-12-29T11:05:58;11.57;;;7.13;;
30743;SDS011;17486;46.738;7.622;2023-12-29T11:08:27;26.50;;;21.38;;
30743;SDS011;17486;46.738;7.622;2023-12-29T11:10:52;23.40;;;18.95;;
30743;SDS011;17486;46.738;7.622;2023-12-29T11:13:19;11.73;;;10.52;;
30743;SDS011;17486;46.738;7.622;2023-12-29T11:15:45;7.05;;;6.35;;
30743;SDS011;17486;46.738;7.622;2023-12-29T11:18:12;7.00;;;6.03;;
30743;SDS011;17486;46.738;7.622;2023-12-29T11:20:39;6.07;;;4.68;;
30743;SDS011;17486;46.738;7.622;2023-12-29T11:23:06;6.03;;;4.97;;
30743;SDS011;17486;46.738;7.622;2023-12-29T11:25:32;6.05;;;4.45;;
30743;SDS011;17486;46.738;7.622;2023-12-29T11:27:59;7.45;;;4.32;;
30743;SDS011;17486;46.738;7.622;2023-12-29T11:30:25;7.15;;;4.72;;
30743;SDS011;17486;46.738;7.622;2023-12-29T11:32:53;6.07;;;4.00;;
30743;SDS011;17486;46.738;7.622;2023-12-29T11:41:29;5.28;;;4.50;;
30743;SDS011;17486;46.738;7.622;2023-12-29T11:44:11;5.72;;;4.05;;
30743;SDS011;17486;46.738;7.622;2023-12-29T11:46:40;5.93;;;4.20;;
30743;SDS011;17486;46.738;7.622;2023-12-29T11:49:08;6.30;;;3.87;;
30743;SDS011;17486;46.738;7.622;2023-12-29T11:54:23;5.13;;;3.50;;
30743;SDS011;17486;46.738;7.622;2023-12-29T11:56:49;6.43;;;4.03;;
30743;SDS011;17486;46.738;7.622;2023-12-29T11:59:16;4.55;;;3.58;;
30743;SDS011;17486;46.738;7.622;2023-12-29T12:01:43;6.05;;;3.92;;
30743;SDS011;17486;46.738;7.622;2023-12-29T12:07:07;5.05;;;3.88;;
30743;SDS011;17486;46.738;7.622;2023-12-29T12:09:36;6.45;;;3.90;;
30743;SDS011;17486;46.738;7.622;2023-12-29T12:12:02;4.35;;;3.60;;
30743;SDS011;17486;46.738;7.622;2023-12-29T12:14:44;5.30;;;3.92;;
30743;SDS011;17486;46.738;7.622;2023-12-29T12:17:26;101.60;;;69.30;;
30743;SDS011;17486;46.738;7.622;2023-12-29T12:19:53;188.55;;;122.50;;
30743;SDS011;17486;46.738;7.622;2023-12-29T12:22:23;182.70;;;114.03;;
30743;SDS011;17486;46.738;7.622;2023-12-29T12:24:50;75.90;;;49.42;;
30743;SDS011;17486;46.738;7.622;2023-12-29T12:27:21;14.50;;;10.13;;
30743;SDS011;17486;46.738;7.622;2023-12-29T12:29:50;7.15;;;5.50;;
30743;SDS011;17486;46.738;7.622;2023-12-29T12:32:20;5.10;;;4.22;;
30743;SDS011;17486;46.738;7.622;2023-12-29T12:34:47;4.13;;;3.65;;
30743;SDS011;17486;46.738;7.622;2023-12-29T12:37:12;5.88;;;3.92;;
30743;SDS011;17486;46.738;7.622;2023-12-29T12:39:38;6.10;;;3.90;;
30743;SDS011;17486;46.738;7.622;2023-12-29T12:42:05;4.93;;;3.30;;
30743;SDS011;17486;46.738;7.622;2023-12-29T12:44:30;5.20;;;4.70;;
30743;SDS011;17486;46.738;7.622;2023-12-29T12:46:56;6.05;;;3.83;;
30743;SDS011;17486;46.738;7.622;2023-12-29T12:49:26;4.32;;;3.70;;
30743;SDS011;17486;46.738;7.622;2023-12-29T12:51:54;5.45;;;4.20;;
30743;SDS011;17486;46.738;7.622;2023-12-29T12:54:20;11.20;;;8.13;;
30743;SDS011;17486;46.738;7.622;2023-12-29T12:56:46;7.40;;;5.07;;
30743;SDS011;17486;46.738;7.622;2023-12-29T12:59:12;4.30;;;3.28;;
30743;SDS011;17486;46.738;7.622;2023-12-29T13:01:39;6.05;;;3.95;;
30743;SDS011;17486;46.738;7.622;2023-12-29T13:04:05;4.10;;;3.42;;
30743;SDS011;17486;46.738;7.622;2023-12-29T13:06:33;6.47;;;4.82;;
30743;SDS011;17486;46.738;7.622;2023-12-29T13:08:59;5.00;;;4.15;;
30743;SDS011;17486;46.738;7.622;2023-12-29T13:11:27;4.25;;;3.78;;
30743;SDS011;17486;46.738;7.622;2023-12-29T13:13:52;5.75;;;3.85;;
30743;SDS011;17486;46.738;7.622;2023-12-29T13:16:28;4.43;;;3.40;;
30743;SDS011;17486;46.738;7.622;2023-12-29T13:18:57;3.47;;;3.03;;
30743;SDS011;17486;46.738;7.622;2023-12-29T13:21:37;3.47;;;3.17;;
30743;SDS011;17486;46.738;7.622;2023-12-29T13:24:05;4.20;;;3.03;;
30743;SDS011;17486;46.738;7.622;2023-12-29T13:26:31;2.83;;;2.53;;
30743;SDS011;17486;46.738;7.622;2023-12-29T13:28:56;3.75;;;2.45;;
30743;SDS011;17486;46.738;7.622;2023-12-29T13:31:21;4.25;;;3.20;;
30743;SDS011;17486;46.738;7.622;2023-12-29T13:33:51;3.88;;;3.22;;
30743;SDS011;17486;46.738;7.622;2023-12-29T13:39:20;6.22;;;3.22;;
30743;SDS011;17486;46.738;7.622;2023-12-29T13:41:47;3.40;;;2.85;;
30743;SDS011;17486;46.738;7.622;2023-12-29T13:44:13;4.72;;;2.92;;
30743;SDS011;17486;46.738;7.622;2023-12-29T13:46:39;4.47;;;3.13;;
30743;SDS011;17486;46.738;7.622;2023-12-29T13:49:04;4.70;;;3.22;;
30743;SDS011;17486;46.738;7.622;2023-12-29T13:51:31;5.40;;;2.90;;
30743;SDS011;17486;46.738;7.622;2023-12-29T13:54:00;3.42;;;2.80;;
30743;SDS011;17486;46.738;7.622;2023-12-29T13:56:27;3.97;;;3.38;;
30743;SDS011;17486;46.738;7.622;2023-12-29T13:58:53;2.85;;;2.33;;
30743;SDS011;17486;46.738;7.622;2023-12-29T14:01:19;2.92;;;2.42;;
30743;SDS011;17486;46.738;7.622;2023-12-29T14:03:50;8.48;;;7.68;;
30743;SDS011;17486;46.738;7.622;2023-12-29T14:06:50;9.25;;;8.43;;
30743;SDS011;17486;46.738;7.622;2023-12-29T14:09:24;4.85;;;3.35;;
30743;SDS011;17486;46.738;7.622;2023-12-29T14:11:49;3.63;;;2.50;;
30743;SDS011;17486;46.738;7.622;2023-12-29T14:14:25;3.40;;;2.40;;
30743;SDS011;17486;46.738;7.622;2023-12-29T14:16:52;3.72;;;2.92;;
30743;SDS011;17486;46.738;7.622;2023-12-29T14:19:18;4.65;;;2.75;;
30743;SDS011;17486;46.738;7.622;2023-12-29T14:21:44;2.50;;;2.30;;
30743;SDS011;17486;46.738;7.622;2023-12-29T14:24:16;3.20;;;2.42;;
30743;SDS011;17486;46.738;7.622;2023-12-29T14:26:42;3.65;;;2.60;;
30743;SDS011;17486;46.738;7.622;2023-12-29T14:29:17;3.92;;;2.85;;
30743;SDS011;17486;46.738;7.622;2023-12-29T14:31:43;3.97;;;2.83;;
30743;SDS011;17486;46.738;7.622;2023-12-29T14:34:10;3.25;;;2.55;;
30743;SDS011;17486;46.738;7.622;2023-12-29T14:36:37;2.80;;;2.45;;
30743;SDS011;17486;46.738;7.622;2023-12-29T14:39:04;4.40;;;2.60;;
30743;SDS011;17486;46.738;7.622;2023-12-29T14:41:31;2.60;;;2.08;;
30743;SDS011;17486;46.738;7.622;2023-12-29T14:43:57;4.38;;;2.65;;
30743;SDS011;17486;46.738;7.622;2023-12-29T14:46:22;3.15;;;2.45;;
30743;SDS011;17486;46.738;7.622;2023-12-29T14:48:48;2.47;;;2.28;;
30743;SDS011;17486;46.738;7.622;2023-12-29T14:51:14;3.67;;;2.42;;
30743;SDS011;17486;46.738;7.622;2023-12-29T14:53:42;3.67;;;2.63;;
30743;SDS011;17486;46.738;7.622;2023-12-29T14:56:09;3.72;;;2.65;;